sensor_id;sensor_type;location;lat;lon;timestamp;pressure;altitude;pressure_sealevel;temperature;humidity
71889;BME280;59762;49.998;14.858;2023-04-08T00:00:15;97467.56;;;2.63;100.00
71889;BME280;59762;49.998;14.858;2023-04-08T00:03:01;97474.22;;;2.56;100.00
71889;BME280;59762;49.998;14.858;2023-04-08T00:05:27;97473.78;;;2.62;100.00
71889;BME280;59762;49.998;14.858;2023-04-08T00:07:52;97473.69;;;2.63;100.00
71889;BME280;59762;49.998;14.858;2023-04-08T00:10:19;97470.84;;;2.66;100.00
71889;BME280;59762;49.998;14.858;2023-04-08T00:12:46;97476.44;;;2.62;100.00
71889;BME280;59762;49.998;14.858;2023-04-08T00:15:12;97475.59;;;2.61;100.00
71889;BME280;59762;49.998;14.858;2023-04-08T00:17:37;97466.13;;;2.59;100.00
71889;BME280;59762;49.998;14.858;2023-04-08T00:20:03;97470.13;;;2.52;100.00
71889;BME280;59762;49.998;14.858;2023-04-08T00:22:30;97471.91;;;2.64;100.00
71889;BME280;59762;49.998;14.858;2023-04-08T00:24:56;97471.81;;;2.65;100.00
71889;BME280;59762;49.998;14.858;2023-04-08T00:27:22;97474.66;;;2.62;100.00
71889;BME280;59762;49.998;14.858;2023-04-08T00:29:50;97466.63;;;2.64;100.00
71889;BME280;59762;49.998;14.858;2023-04-08T00:32:16;97464.97;;;2.50;100.00
71889;BME280;59762;49.998;14.858;2023-04-08T00:34:41;97467.69;;;2.61;100.00
71889;BME280;59762;49.998;14.858;2023-04-08T00:37:07;97475.81;;;2.58;100.00
71889;BME280;59762;49.998;14.858;2023-04-08T00:39:33;97469.41;;;2.50;100.00
71889;BME280;59762;49.998;14.858;2023-04-08T00:41:59;97472.66;;;2.53;100.00
71889;BME280;59762;49.998;14.858;2023-04-08T00:44:26;97470.59;;;2.69;100.00
71889;BME280;59762;49.998;14.858;2023-04-08T00:46:52;97464.31;;;2.72;100.00
71889;BME280;59762;49.998;14.858;2023-04-08T00:49:18;97474.09;;;2.70;100.00
71889;BME280;59762;49.998;14.858;2023-04-08T00:51:44;97469.56;;;2.72;100.00
71889;BME280;59762;49.998;14.858;2023-04-08T00:54:10;97470.41;;;2.72;100.00
71889;BME280;59762;49.998;14.858;2023-04-08T00:56:36;97471.56;;;2.68;100.00
71889;BME280;59762;49.998;14.858;2023-04-08T00:59:03;97472.00;;;2.62;100.00
71889;BME280;59762;49.998;14.858;2023-04-08T01:07:27;97471.16;;;2.74;100.00
71889;BME280;59762;49.998;14.858;2023-04-08T01:09:56;97466.94;;;2.72;100.00
71889;BME280;59762;49.998;14.858;2023-04-08T01:12:28;97472.47;;;2.56;100.00
71889;BME280;59762;49.998;14.858;2023-04-08T01:15:02;97472.22;;;2.72;100.00
71889;BME280;59762;49.998;14.858;2023-04-08T01:17:29;97476.84;;;2.68;100.00
71889;BME280;59762;49.998;14.858;2023-04-08T01:19:56;97470.50;;;2.71;100.00
71889;BME280;59762;49.998;14.858;2023-04-08T01:25:32;97472.53;;;2.67;100.00
71889;BME280;59762;49.998;14.858;2023-04-08T01:27:59;97475.66;;;2.72;100.00
71889;BME280;59762;49.998;14.858;2023-04-08T01:30:27;97470.59;;;2.69;100.00
71889;BME280;59762;49.998;14.858;2023-04-08T01:32:55;97475.78;;;2.71;100.00
71889;BME280;59762;49.998;14.858;2023-04-08T01:35:22;97473.88;;;2.73;100.00
71889;BME280;59762;49.998;14.858;2023-04-08T01:37:50;97465.34;;;2.69;100.00
71889;BME280;59762;49.998;14.858;2023-04-08T01:40:17;97465.72;;;2.76;100.00
71889;BME280;59762;49.998;14.858;2023-04-08T01:42:45;97471.34;;;2.71;100.00
71889;BME280;59762;49.998;14.858;2023-04-08T01:45:12;97474.00;;;2.71;100.00
71889;BME280;59762;49.998;14.858;2023-04-08T01:47:39;97469.03;;;2.67;100.00
71889;BME280;59762;49.998;14.858;2023-04-08T01:50:06;97471.25;;;2.73;100.00
71889;BME280;59762;49.998;14.858;2023-04-08T01:52:34;97475.81;;;2.58;100.00
71889;BME280;59762;49.998;14.858;2023-04-08T01:55:02;97478.09;;;2.63;100.00
71889;BME280;59762;49.998;14.858;2023-04-08T01:57:31;97475.06;;;2.69;100.00
71889;BME280;59762;49.998;14.858;2023-04-08T02:00:07;97479.47;;;2.68;100.00
71889;BME280;59762;49.998;14.858;2023-04-08T02:02:35;97481.59;;;2.63;100.00
71889;BME280;59762;49.998;14.858;2023-04-08T02:05:02;97484.34;;;2.62;100.00
71889;BME280;59762;49.998;14.858;2023-04-08T02:07:28;97482.44;;;2.64;100.00
71889;BME280;59762;49.998;14.858;2023-04-08T02:09:55;97480.97;;;2.60;100.00
71889;BME280;59762;49.998;14.858;2023-04-08T02:12:21;97479.16;;;2.73;100.00
71889;BME280;59762;49.998;14.858;2023-04-08T02:14:46;97478.00;;;2.64;100.00
71889;BME280;59762;49.998;14.858;2023-04-08T02:17:34;97472.22;;;2.72;100.00
71889;BME280;59762;49.998;14.858;2023-04-08T02:20:09;97478.66;;;2.68;100.00
71889;BME280;59762;49.998;14.858;2023-04-08T02:22:56;97479.38;;;2.70;100.00
71889;BME280;59762;49.998;14.858;2023-04-08T02:25:25;97477.06;;;2.65;100.00
71889;BME280;59762;49.998;14.858;2023-04-08T02:27:53;97477.59;;;2.70;100.00
71889;BME280;59762;49.998;14.858;2023-04-08T02:30:20;97487.81;;;2.62;100.00
71889;BME280;59762;49.998;14.858;2023-04-08T02:32:47;97489.00;;;2.58;100.00
71889;BME280;59762;49.998;14.858;2023-04-08T02:35:14;97490.25;;;2.65;100.00
71889;BME280;59762;49.998;14.858;2023-04-08T02:37:41;97478.19;;;2.74;100.00
71889;BME280;59762;49.998;14.858;2023-04-08T02:40:28;97489.06;;;2.69;100.00
71889;BME280;59762;49.998;14.858;2023-04-08T02:42:54;97487.28;;;2.70;100.00
71889;BME280;59762;49.998;14.858;2023-04-08T02:45:20;97486.75;;;2.65;100.00
71889;BME280;59762;49.998;14.858;2023-04-08T02:47:46;97494.56;;;2.66;100.00
71889;BME280;59762;49.998;14.858;2023-04-08T02:50:12;97496.03;;;2.70;100.00
71889;BME280;59762;49.998;14.858;2023-04-08T02:52:37;97488.22;;;2.69;100.00
71889;BME280;59762;49.998;14.858;2023-04-08T02:55:03;97490.88;;;2.69;100.00
71889;BME280;59762;49.998;14.858;2023-04-08T02:57:31;97493.06;;;2.75;100.00
71889;BME280;59762;49.998;14.858;2023-04-08T02:59:57;97499.50;;;2.71;100.00
71889;BME280;59762;49.998;14.858;2023-04-08T03:02:22;97493.31;;;2.72;100.00
71889;BME280;59762;49.998;14.858;2023-04-08T03:04:48;97490.88;;;2.69;100.00
71889;BME280;59762;49.998;14.858;2023-04-08T03:07:14;97490.66;;;2.72;100.00
71889;BME280;59762;49.998;14.858;2023-04-08T03:09:39;97493.56;;;2.80;100.00
71889;BME280;59762;49.998;14.858;2023-04-08T03:12:05;97491.19;;;2.77;100.00
71889;BME280;59762;49.998;14.858;2023-04-08T03:14:31;97499.81;;;2.79;100.00
71889;BME280;59762;49.998;14.858;2023-04-08T03:16:56;97506.59;;;2.70;100.00
71889;BME280;59762;49.998;14.858;2023-04-08T03:19:22;97506.59;;;2.70;100.00
71889;BME280;59762;49.998;14.858;2023-04-08T03:21:48;97506.28;;;2.62;100.00
71889;BME280;59762;49.998;14.858;2023-04-08T03:24:13;97510.25;;;2.80;100.00
71889;BME280;59762;49.998;14.858;2023-04-08T03:26:39;97508.16;;;2.73;100.00
71889;BME280;59762;49.998;14.858;2023-04-08T03:29:05;97506.06;;;2.65;100.00
71889;BME280;59762;49.998;14.858;2023-04-08T03:31:31;97506.25;;;2.75;100.00
71889;BME280;59762;49.998;14.858;2023-04-08T03:33:57;97505.53;;;2.73;100.00
71889;BME280;59762;49.998;14.858;2023-04-08T03:36:23;97502.69;;;2.63;100.00
71889;BME280;59762;49.998;14.858;2023-04-08T03:38:48;97503.00;;;2.71;100.00
71889;BME280;59762;49.998;14.858;2023-04-08T03:41:14;97504.25;;;2.66;100.00
71889;BME280;59762;49.998;14.858;2023-04-08T03:43:40;97499.75;;;2.68;100.00
71889;BME280;59762;49.998;14.858;2023-04-08T03:46:05;97504.47;;;2.75;100.00
71889;BME280;59762;49.998;14.858;2023-04-08T03:48:31;97505.41;;;2.74;100.00
71889;BME280;59762;49.998;14.858;2023-04-08T03:50:56;97503.00;;;2.71;100.00
71889;BME280;59762;49.998;14.858;2023-04-08T03:53:22;97508.97;;;2.73;100.00
71889;BME280;59762;49.998;14.858;2023-04-08T03:55:48;97513.84;;;2.79;100.00
71889;BME280;59762;49.998;14.858;2023-04-08T03:58:15;97502.06;;;2.60;100.00
71889;BME280;59762;49.998;14.858;2023-04-08T04:00:41;97509.22;;;2.70;100.00
71889;BME280;59762;49.998;14.858;2023-04-08T04:03:06;97508.88;;;2.75;100.00
71889;BME280;59762;49.998;14.858;2023-04-08T04:05:33;97515.56;;;2.68;100.00
71889;BME280;59762;49.998;14.858;2023-04-08T04:07:58;97515.63;;;2.79;100.00
71889;BME280;59762;49.998;14.858;2023-04-08T04:10:24;97523.13;;;2.72;100.00
71889;BME280;59762;49.998;14.858;2023-04-08T04:12:50;97521.09;;;2.76;100.00
71889;BME280;59762;49.998;14.858;2023-04-08T04:15:16;97520.69;;;2.82;100.00
71889;BME280;59762;49.998;14.858;2023-04-08T04:17:42;97527.13;;;2.78;100.00
71889;BME280;59762;49.998;14.858;2023-04-08T04:20:07;97526.28;;;2.77;100.00
71889;BME280;59762;49.998;14.858;2023-04-08T04:22:33;97529.47;;;2.70;100.00
71889;BME280;59762;49.998;14.858;2023-04-08T04:24:59;97530.47;;;2.80;100.00
71889;BME280;59762;49.998;14.858;2023-04-08T04:27:25;97533.13;;;2.80;100.00
71889;BME280;59762;49.998;14.858;2023-04-08T04:29:50;97540.50;;;2.87;100.00
71889;BME280;59762;49.998;14.858;2023-04-08T04:32:16;97538.22;;;2.70;100.00
71889;BME280;59762;49.998;14.858;2023-04-08T04:34:42;97539.03;;;2.83;100.00
71889;BME280;59762;49.998;14.858;2023-04-08T04:37:08;97547.25;;;2.79;100.00
71889;BME280;59762;49.998;14.858;2023-04-08T04:39:35;97547.56;;;2.87;100.00
71889;BME280;59762;49.998;14.858;2023-04-08T04:42:00;97549.59;;;2.83;100.00
71889;BME280;59762;49.998;14.858;2023-04-08T04:44:27;97550.09;;;2.88;100.00
71889;BME280;59762;49.998;14.858;2023-04-08T04:46:53;97549.19;;;2.77;100.00
71889;BME280;59762;49.998;14.858;2023-04-08T04:49:19;97553.69;;;2.87;100.00
71889;BME280;59762;49.998;14.858;2023-04-08T04:51:45;97557.69;;;2.93;100.00
71889;BME280;59762;49.998;14.858;2023-04-08T04:54:10;97562.84;;;2.94;100.00
71889;BME280;59762;49.998;14.858;2023-04-08T04:56:36;97566.44;;;2.93;100.00
71889;BME280;59762;49.998;14.858;2023-04-08T04:59:01;97567.59;;;2.89;100.00
71889;BME280;59762;49.998;14.858;2023-04-08T05:01:27;97568.78;;;2.98;100.00
71889;BME280;59762;49.998;14.858;2023-04-08T05:03:53;97572.22;;;2.98;100.00
71889;BME280;59762;49.998;14.858;2023-04-08T05:06:19;97574.03;;;2.85;100.00
71889;BME280;59762;49.998;14.858;2023-04-08T05:08:44;97576.25;;;2.79;100.00
71889;BME280;59762;49.998;14.858;2023-04-08T05:11:10;97575.31;;;2.92;100.00
71889;BME280;59762;49.998;14.858;2023-04-08T05:13:35;97577.63;;;2.84;100.00
71889;BME280;59762;49.998;14.858;2023-04-08T05:16:01;97579.22;;;2.87;100.00
71889;BME280;59762;49.998;14.858;2023-04-08T05:18:27;97586.88;;;3.02;100.00
71889;BME280;59762;49.998;14.858;2023-04-08T05:20:52;97584.81;;;2.95;100.00
71889;BME280;59762;49.998;14.858;2023-04-08T05:23:18;97591.84;;;2.94;100.00
71889;BME280;59762;49.998;14.858;2023-04-08T05:25:44;97594.41;;;2.96;100.00
71889;BME280;59762;49.998;14.858;2023-04-08T05:28:09;97589.97;;;2.96;100.00
71889;BME280;59762;49.998;14.858;2023-04-08T05:30:35;97592.56;;;3.09;100.00
71889;BME280;59762;49.998;14.858;2023-04-08T05:33:01;97594.34;;;3.08;100.00
71889;BME280;59762;49.998;14.858;2023-04-08T05:35:27;97597.66;;;2.99;100.00
71889;BME280;59762;49.998;14.858;2023-04-08T05:37:53;97594.09;;;3.00;100.00
71889;BME280;59762;49.998;14.858;2023-04-08T05:40:19;97595.56;;;3.04;100.00
71889;BME280;59762;49.998;14.858;2023-04-08T05:42:44;97604.41;;;3.03;100.00
71889;BME280;59762;49.998;14.858;2023-04-08T05:45:10;97601.44;;;2.95;100.00
71889;BME280;59762;49.998;14.858;2023-04-08T05:47:36;97601.88;;;3.02;100.00
71889;BME280;59762;49.998;14.858;2023-04-08T05:50:02;97593.63;;;3.06;100.00
71889;BME280;59762;49.998;14.858;2023-04-08T05:52:28;97607.69;;;3.07;100.00
71889;BME280;59762;49.998;14.858;2023-04-08T05:54:53;97610.31;;;2.94;100.00
71889;BME280;59762;49.998;14.858;2023-04-08T05:57:19;97615.81;;;3.04;100.00
71889;BME280;59762;49.998;14.858;2023-04-08T05:59:45;97618.75;;;2.99;100.00
71889;BME280;59762;49.998;14.858;2023-04-08T06:02:10;97624.69;;;3.03;100.00
71889;BME280;59762;49.998;14.858;2023-04-08T06:04:36;97618.53;;;3.02;100.00
71889;BME280;59762;49.998;14.858;2023-04-08T06:07:01;97628.38;;;3.00;100.00
71889;BME280;59762;49.998;14.858;2023-04-08T06:09:28;97614.53;;;3.09;100.00
71889;BME280;59762;49.998;14.858;2023-04-08T06:11:54;97619.81;;;3.09;100.00
71889;BME280;59762;49.998;14.858;2023-04-08T06:14:21;97621.97;;;3.28;100.00
71889;BME280;59762;49.998;14.858;2023-04-08T06:16:47;97624.53;;;3.17;100.00
71889;BME280;59762;49.998;14.858;2023-04-08T06:19:13;97627.75;;;3.45;100.00
71889;BME280;59762;49.998;14.858;2023-04-08T06:21:38;97628.09;;;3.28;100.00
71889;BME280;59762;49.998;14.858;2023-04-08T06:24:04;97621.84;;;3.42;100.00
71889;BME280;59762;49.998;14.858;2023-04-08T06:26:32;97623.59;;;3.54;100.00
71889;BME280;59762;49.998;14.858;2023-04-08T06:28:58;97631.81;;;3.62;100.00
71889;BME280;59762;49.998;14.858;2023-04-08T06:31:24;97633.66;;;3.49;100.00
71889;BME280;59762;49.998;14.858;2023-04-08T06:33:50;97634.44;;;3.62;100.00
71889;BME280;59762;49.998;14.858;2023-04-08T06:36:16;97641.44;;;3.63;100.00
71889;BME280;59762;49.998;14.858;2023-04-08T06:38:42;97644.69;;;3.66;100.00
71889;BME280;59762;49.998;14.858;2023-04-08T06:41:07;97640.25;;;3.67;100.00
71889;BME280;59762;49.998;14.858;2023-04-08T06:43:34;97649.88;;;3.68;100.00
71889;BME280;59762;49.998;14.858;2023-04-08T06:46:02;97649.81;;;3.80;100.00
71889;BME280;59762;49.998;14.858;2023-04-08T06:48:27;97645.28;;;3.82;100.00
71889;BME280;59762;49.998;14.858;2023-04-08T06:50:58;97647.13;;;3.69;100.00
71889;BME280;59762;49.998;14.858;2023-04-08T06:53:25;97649.63;;;3.71;100.00
71889;BME280;59762;49.998;14.858;2023-04-08T06:55:52;97653.72;;;3.87;100.00
71889;BME280;59762;49.998;14.858;2023-04-08T06:58:18;97654.25;;;3.80;100.00
71889;BME280;59762;49.998;14.858;2023-04-08T07:00:43;97656.63;;;3.95;100.00
71889;BME280;59762;49.998;14.858;2023-04-08T07:03:09;97652.56;;;4.26;100.00
71889;BME280;59762;49.998;14.858;2023-04-08T07:05:37;97662.69;;;3.85;100.00
71889;BME280;59762;49.998;14.858;2023-04-08T07:08:04;97665.00;;;4.13;100.00
71889;BME280;59762;49.998;14.858;2023-04-08T07:10:29;97670.47;;;3.86;100.00
71889;BME280;59762;49.998;14.858;2023-04-08T07:12:55;97667.84;;;4.10;100.00
71889;BME280;59762;49.998;14.858;2023-04-08T07:15:21;97678.00;;;4.16;100.00
71889;BME280;59762;49.998;14.858;2023-04-08T07:17:47;97678.28;;;4.00;100.00
71889;BME280;59762;49.998;14.858;2023-04-08T07:20:13;97676.91;;;3.95;100.00
71889;BME280;59762;49.998;14.858;2023-04-08T07:22:40;97681.06;;;3.86;100.00
71889;BME280;59762;49.998;14.858;2023-04-08T07:25:06;97684.28;;;4.02;100.00
71889;BME280;59762;49.998;14.858;2023-04-08T07:27:35;97690.47;;;4.14;100.00
71889;BME280;59762;49.998;14.858;2023-04-08T07:30:01;97694.84;;;4.02;100.00
71889;BME280;59762;49.998;14.858;2023-04-08T07:32:27;97692.78;;;3.95;100.00
71889;BME280;59762;49.998;14.858;2023-04-08T07:34:53;97696.78;;;4.00;100.00
71889;BME280;59762;49.998;14.858;2023-04-08T07:37:19;97699.47;;;4.11;100.00
71889;BME280;59762;49.998;14.858;2023-04-08T07:39:45;97703.34;;;3.95;100.00
71889;BME280;59762;49.998;14.858;2023-04-08T07:42:10;97700.19;;;3.77;100.00
71889;BME280;59762;49.998;14.858;2023-04-08T07:44:36;97713.28;;;3.91;100.00
71889;BME280;59762;49.998;14.858;2023-04-08T07:47:03;97713.59;;;3.87;100.00
71889;BME280;59762;49.998;14.858;2023-04-08T07:49:28;97711.25;;;3.95;100.00
71889;BME280;59762;49.998;14.858;2023-04-08T07:51:54;97716.69;;;3.81;100.00
71889;BME280;59762;49.998;14.858;2023-04-08T07:54:20;97729.34;;;3.88;100.00
71889;BME280;59762;49.998;14.858;2023-04-08T07:56:46;97729.56;;;3.85;100.00
71889;BME280;59762;49.998;14.858;2023-04-08T07:59:11;97727.03;;;3.84;100.00
71889;BME280;59762;49.998;14.858;2023-04-08T08:01:37;97731.38;;;3.85;100.00
71889;BME280;59762;49.998;14.858;2023-04-08T08:04:03;97727.22;;;3.93;100.00
71889;BME280;59762;49.998;14.858;2023-04-08T08:06:29;97738.03;;;3.78;100.00
71889;BME280;59762;49.998;14.858;2023-04-08T08:08:58;97738.75;;;3.80;100.00
71889;BME280;59762;49.998;14.858;2023-04-08T08:11:24;97734.78;;;3.74;100.00
71889;BME280;59762;49.998;14.858;2023-04-08T08:13:52;97741.75;;;3.75;100.00
71889;BME280;59762;49.998;14.858;2023-04-08T08:16:18;97747.34;;;3.71;100.00
71889;BME280;59762;49.998;14.858;2023-04-08T08:18:43;97740.38;;;3.70;100.00
71889;BME280;59762;49.998;14.858;2023-04-08T08:21:09;97753.16;;;3.76;100.00
71889;BME280;59762;49.998;14.858;2023-04-08T08:23:35;97754.63;;;3.67;100.00
71889;BME280;59762;49.998;14.858;2023-04-08T08:26:04;97758.09;;;3.80;100.00
71889;BME280;59762;49.998;14.858;2023-04-08T08:28:31;97760.63;;;3.82;100.00
71889;BME280;59762;49.998;14.858;2023-04-08T08:30:57;97766.22;;;3.90;100.00
71889;BME280;59762;49.998;14.858;2023-04-08T08:33:24;97765.88;;;3.94;100.00
71889;BME280;59762;49.998;14.858;2023-04-08T08:35:50;97759.69;;;3.83;100.00
71889;BME280;59762;49.998;14.858;2023-04-08T08:38:16;97768.19;;;3.63;100.00
71889;BME280;59762;49.998;14.858;2023-04-08T08:40:42;97774.91;;;3.67;100.00
71889;BME280;59762;49.998;14.858;2023-04-08T08:43:09;97769.41;;;3.70;100.00
71889;BME280;59762;49.998;14.858;2023-04-08T08:45:41;97778.78;;;3.86;100.00
71889;BME280;59762;49.998;14.858;2023-04-08T08:48:07;97776.06;;;3.75;100.00
71889;BME280;59762;49.998;14.858;2023-04-08T08:50:34;97786.59;;;4.00;100.00
71889;BME280;59762;49.998;14.858;2023-04-08T08:53:00;97782.25;;;3.99;100.00
71889;BME280;59762;49.998;14.858;2023-04-08T08:55:29;97782.69;;;3.93;100.00
71889;BME280;59762;49.998;14.858;2023-04-08T08:57:56;97785.53;;;4.03;100.00
71889;BME280;59762;49.998;14.858;2023-04-08T09:00:36;97794.47;;;4.13;100.00
71889;BME280;59762;49.998;14.858;2023-04-08T09:03:16;97797.41;;;4.21;100.00
71889;BME280;59762;49.998;14.858;2023-04-08T09:08:36;97802.03;;;4.30;100.00
71889;BME280;59762;49.998;14.858;2023-04-08T09:11:19;97802.44;;;4.36;100.00
71889;BME280;59762;49.998;14.858;2023-04-08T09:13:46;97796.66;;;4.31;100.00
71889;BME280;59762;49.998;14.858;2023-04-08T09:16:13;97808.97;;;4.20;100.00
71889;BME280;59762;49.998;14.858;2023-04-08T09:18:42;97803.22;;;4.96;100.00
71889;BME280;59762;49.998;14.858;2023-04-08T09:21:09;97805.25;;;5.27;100.00
71889;BME280;59762;49.998;14.858;2023-04-08T09:23:47;97813.97;;;5.51;100.00
71889;BME280;59762;49.998;14.858;2023-04-08T09:26:17;97821.22;;;5.71;100.00
71889;BME280;59762;49.998;14.858;2023-04-08T09:29:14;97811.22;;;5.64;100.00
71889;BME280;59762;49.998;14.858;2023-04-08T09:31:40;97814.69;;;5.53;100.00
71889;BME280;59762;49.998;14.858;2023-04-08T09:34:13;97813.69;;;5.32;100.00
71889;BME280;59762;49.998;14.858;2023-04-08T09:36:42;97824.28;;;4.98;100.00
71889;BME280;59762;49.998;14.858;2023-04-08T09:39:09;97823.78;;;5.27;100.00
71889;BME280;59762;49.998;14.858;2023-04-08T09:41:36;97824.78;;;5.03;100.00
71889;BME280;59762;49.998;14.858;2023-04-08T09:44:06;97823.94;;;5.37;100.00
71889;BME280;59762;49.998;14.858;2023-04-08T09:46:46;97825.63;;;5.49;100.00
71889;BME280;59762;49.998;14.858;2023-04-08T09:49:25;97816.78;;;5.72;100.00
71889;BME280;59762;49.998;14.858;2023-04-08T10:00:16;97823.34;;;5.44;100.00
71889;BME280;59762;49.998;14.858;2023-04-08T10:05:24;97830.91;;;5.83;100.00
71889;BME280;59762;49.998;14.858;2023-04-08T10:07:51;97828.63;;;6.01;100.00
71889;BME280;59762;49.998;14.858;2023-04-08T10:10:17;97833.06;;;5.78;100.00
71889;BME280;59762;49.998;14.858;2023-04-08T10:12:43;97830.41;;;5.89;100.00
71889;BME280;59762;49.998;14.858;2023-04-08T10:20:40;97833.47;;;6.07;100.00
71889;BME280;59762;49.998;14.858;2023-04-08T10:23:09;97830.63;;;5.75;94.41
71889;BME280;59762;49.998;14.858;2023-04-08T10:25:42;97834.69;;;5.57;98.78
71889;BME280;59762;49.998;14.858;2023-04-08T10:30:43;97841.34;;;5.74;100.00
71889;BME280;59762;49.998;14.858;2023-04-08T10:33:21;97842.53;;;5.70;100.00
71889;BME280;59762;49.998;14.858;2023-04-08T10:35:50;97843.38;;;5.70;100.00
71889;BME280;59762;49.998;14.858;2023-04-08T10:38:18;97840.06;;;5.90;99.48
71889;BME280;59762;49.998;14.858;2023-04-08T10:40:44;97848.94;;;5.78;100.00
71889;BME280;59762;49.998;14.858;2023-04-08T10:43:11;97853.78;;;5.84;100.00
71889;BME280;59762;49.998;14.858;2023-04-08T10:45:38;97842.63;;;5.57;100.00
71889;BME280;59762;49.998;14.858;2023-04-08T10:48:19;97857.34;;;5.27;100.00
71889;BME280;59762;49.998;14.858;2023-04-08T10:50:58;97852.84;;;5.16;100.00
71889;BME280;59762;49.998;14.858;2023-04-08T10:53:28;97857.50;;;5.02;100.00
71889;BME280;59762;49.998;14.858;2023-04-08T10:56:06;97857.75;;;5.10;100.00
71889;BME280;59762;49.998;14.858;2023-04-08T10:58:33;97862.91;;;5.00;100.00
71889;BME280;59762;49.998;14.858;2023-04-08T11:01:05;97867.72;;;4.95;100.00
71889;BME280;59762;49.998;14.858;2023-04-08T11:03:35;97862.84;;;4.89;100.00
71889;BME280;59762;49.998;14.858;2023-04-08T11:06:02;97862.50;;;4.70;100.00
71889;BME280;59762;49.998;14.858;2023-04-08T11:08:29;97859.88;;;4.58;100.00
71889;BME280;59762;49.998;14.858;2023-04-08T11:10:55;97864.47;;;4.56;100.00
71889;BME280;59762;49.998;14.858;2023-04-08T11:13:21;97863.94;;;4.51;100.00
71889;BME280;59762;49.998;14.858;2023-04-08T11:15:48;97868.78;;;4.57;100.00
71889;BME280;59762;49.998;14.858;2023-04-08T11:18:15;97859.38;;;4.53;100.00
71889;BME280;59762;49.998;14.858;2023-04-08T11:20:43;97872.31;;;4.45;100.00
71889;BME280;59762;49.998;14.858;2023-04-08T11:23:12;97877.19;;;4.51;100.00
71889;BME280;59762;49.998;14.858;2023-04-08T11:25:40;97880.72;;;4.62;100.00
71889;BME280;59762;49.998;14.858;2023-04-08T11:28:07;97881.03;;;4.70;100.00
71889;BME280;59762;49.998;14.858;2023-04-08T11:30:33;97875.84;;;4.69;100.00
71889;BME280;59762;49.998;14.858;2023-04-08T11:32:59;97878.16;;;4.73;100.00
71889;BME280;59762;49.998;14.858;2023-04-08T11:35:28;97876.06;;;4.89;100.00
71889;BME280;59762;49.998;14.858;2023-04-08T11:37:54;97879.06;;;5.08;100.00
71889;BME280;59762;49.998;14.858;2023-04-08T11:40:20;97871.31;;;5.29;100.00
71889;BME280;59762;49.998;14.858;2023-04-08T11:42:47;97879.00;;;5.21;100.00
71889;BME280;59762;49.998;14.858;2023-04-08T11:45:14;97884.69;;;5.04;100.00
71889;BME280;59762;49.998;14.858;2023-04-08T11:47:44;97874.47;;;4.99;100.00
71889;BME280;59762;49.998;14.858;2023-04-08T11:50:10;97881.22;;;4.80;100.00
71889;BME280;59762;49.998;14.858;2023-04-08T11:55:05;97884.41;;;4.96;100.00
71889;BME280;59762;49.998;14.858;2023-04-08T11:57:31;97886.66;;;4.89;100.00
71889;BME280;59762;49.998;14.858;2023-04-08T11:59:57;97884.91;;;5.01;100.00
71889;BME280;59762;49.998;14.858;2023-04-08T12:02:23;97888.34;;;4.90;100.00
71889;BME280;59762;49.998;14.858;2023-04-08T12:04:48;97893.03;;;5.10;100.00
71889;BME280;59762;49.998;14.858;2023-04-08T12:07:14;97890.47;;;5.09;100.00
71889;BME280;59762;49.998;14.858;2023-04-08T12:09:39;97892.53;;;5.05;100.00
71889;BME280;59762;49.998;14.858;2023-04-08T12:12:05;97883.69;;;5.17;100.00
71889;BME280;59762;49.998;14.858;2023-04-08T12:14:31;97885.66;;;5.26;100.00
71889;BME280;59762;49.998;14.858;2023-04-08T12:16:57;97884.09;;;5.35;100.00
71889;BME280;59762;49.998;14.858;2023-04-08T12:19:23;97893.69;;;5.59;100.00
71889;BME280;59762;49.998;14.858;2023-04-08T12:21:48;97894.94;;;5.77;100.00
71889;BME280;59762;49.998;14.858;2023-04-08T12:24:14;97891.16;;;5.92;100.00
71889;BME280;59762;49.998;14.858;2023-04-08T12:26:40;97890.03;;;5.84;100.00
71889;BME280;59762;49.998;14.858;2023-04-08T12:29:05;97901.78;;;6.14;100.00
71889;BME280;59762;49.998;14.858;2023-04-08T12:31:33;97899.97;;;6.15;100.00
71889;BME280;59762;49.998;14.858;2023-04-08T12:33:59;97898.16;;;6.48;95.85
71889;BME280;59762;49.998;14.858;2023-04-08T12:36:25;97899.38;;;6.33;95.83
71889;BME280;59762;49.998;14.858;2023-04-08T12:38:51;97905.94;;;5.84;100.00
71889;BME280;59762;49.998;14.858;2023-04-08T12:41:17;97900.47;;;5.74;97.50
71889;BME280;59762;49.998;14.858;2023-04-08T12:43:42;97911.28;;;5.60;99.63
71889;BME280;59762;49.998;14.858;2023-04-08T12:46:08;97911.47;;;5.46;100.00
71889;BME280;59762;49.998;14.858;2023-04-08T12:48:34;97909.56;;;5.48;100.00
71889;BME280;59762;49.998;14.858;2023-04-08T12:50:59;97907.31;;;5.31;100.00
71889;BME280;59762;49.998;14.858;2023-04-08T12:53:25;97912.00;;;5.28;100.00
71889;BME280;59762;49.998;14.858;2023-04-08T12:55:51;97911.91;;;5.06;100.00
71889;BME280;59762;49.998;14.858;2023-04-08T12:58:22;97910.84;;;5.08;100.00
71889;BME280;59762;49.998;14.858;2023-04-08T13:00:48;97909.50;;;4.90;100.00
71889;BME280;59762;49.998;14.858;2023-04-08T13:03:13;97910.09;;;5.06;100.00
71889;BME280;59762;49.998;14.858;2023-04-08T13:05:41;97912.56;;;5.20;100.00
71889;BME280;59762;49.998;14.858;2023-04-08T13:08:07;97912.00;;;5.28;100.00
71889;BME280;59762;49.998;14.858;2023-04-08T13:10:33;97908.81;;;5.46;100.00
71889;BME280;59762;49.998;14.858;2023-04-08T13:12:58;97913.66;;;5.52;100.00
71889;BME280;59762;49.998;14.858;2023-04-08T13:15:24;97900.06;;;5.91;98.96
71889;BME280;59762;49.998;14.858;2023-04-08T13:17:50;97904.91;;;6.08;94.03
71889;BME280;59762;49.998;14.858;2023-04-08T13:20:16;97905.50;;;6.67;94.00
71889;BME280;59762;49.998;14.858;2023-04-08T13:22:42;97905.53;;;7.09;91.60